createdAt,value
2023-05-08T00:02:08.717Z,101733.91
2023-05-08T00:04:40.160Z,101728.59
2023-05-08T00:07:11.590Z,101719.72
2023-05-08T00:09:42.871Z,101734.75
2023-05-08T00:12:14.173Z,101719.72
2023-05-08T00:14:45.468Z,101722.38
2023-05-08T00:17:16.780Z,101720.59
2023-05-08T00:19:48.484Z,101725.91
2023-05-08T00:22:19.854Z,101717.94
2023-05-08T00:24:51.119Z,101722.34
2023-05-08T00:27:22.397Z,101725.00
2023-05-08T00:29:53.782Z,101732.94
2023-05-08T00:32:25.142Z,101728.50
2023-05-08T00:34:56.516Z,101726.72
2023-05-08T00:37:27.880Z,101738.22
2023-05-08T00:39:59.153Z,101742.63
2023-05-08T00:42:30.554Z,101743.50
2023-05-08T00:45:02.696Z,101735.56
2023-05-08T00:47:34.517Z,101717.84
2023-05-08T00:50:06.750Z,101739.06
2023-05-08T00:52:38.705Z,101723.97
2023-05-08T00:55:10.060Z,101736.34
2023-05-08T00:57:41.495Z,101751.38
2023-05-08T01:00:13.587Z,101739.88
2023-05-08T01:02:46.511Z,101737.16
2023-05-08T01:05:17.910Z,101733.56
2023-05-08T01:07:49.221Z,101755.66
2023-05-08T01:10:20.549Z,101745.88
2023-05-08T01:13:08.637Z,101754.75
2023-05-08T01:15:50.487Z,101752.94
2023-05-08T01:19:01.423Z,101750.25
2023-05-08T01:21:56.850Z,101755.53
2023-05-08T01:24:50.193Z,101756.38
2023-05-08T01:27:46.629Z,101748.41
2023-05-08T01:30:42.628Z,101747.53
2023-05-08T01:33:24.697Z,101742.19
2023-05-08T01:36:00.621Z,101742.19
2023-05-08T01:38:50.496Z,101743.06
2023-05-08T01:41:28.151Z,101748.31
2023-05-08T01:44:11.449Z,101752.72
2023-05-08T01:46:49.851Z,101760.66
2023-05-08T01:49:28.029Z,101749.09
2023-05-08T01:52:07.209Z,101761.47
2023-05-08T01:54:50.331Z,101757.00
2023-05-08T01:57:26.643Z,101756.13
2023-05-08T02:00:02.334Z,101755.19
2023-05-08T02:02:34.776Z,101752.53
2023-05-08T02:05:07.364Z,101750.78
2023-05-08T02:07:40.086Z,101742.81
2023-05-08T02:10:13.698Z,101739.25
2023-05-08T02:12:46.959Z,101747.19
2023-05-08T02:15:19.935Z,101719.69
2023-05-08T02:17:54.377Z,101744.47
2023-05-08T02:20:27.685Z,101724.06
2023-05-08T02:22:59.446Z,101739.03
2023-05-08T02:25:31.245Z,101743.50
2023-05-08T02:28:03.375Z,101732.88
2023-05-08T02:30:35.225Z,101737.28
2023-05-08T02:33:10.665Z,101731.09
2023-05-08T02:35:44.151Z,101735.50
2023-05-08T02:38:16.852Z,101732.84
2023-05-08T02:40:54.735Z,101712.41
2023-05-08T02:43:26.628Z,101735.41
2023-05-08T02:46:18.314Z,101707.13
2023-05-08T02:49:03.539Z,101723.88
2023-05-08T02:52:08.736Z,101715.06
2023-05-08T02:55:02.356Z,101718.56
2023-05-08T02:57:46.625Z,101721.19
2023-05-08T03:00:22.374Z,101712.38
2023-05-08T03:03:00.082Z,101715.00
2023-05-08T03:05:38.237Z,101714.97
2023-05-08T03:08:20.695Z,101707.91
2023-05-08T03:10:55.485Z,101704.28
2023-05-08T03:13:29.799Z,101712.28
2023-05-08T03:16:05.248Z,101716.66
2023-05-08T03:18:45.289Z,101712.16
2023-05-08T03:21:21.425Z,101731.59
2023-05-08T03:23:53.949Z,101711.28
2023-05-08T03:26:25.554Z,101713.88
2023-05-08T03:28:58.929Z,101729.75
2023-05-08T03:31:32.852Z,101717.38
2023-05-08T03:34:04.848Z,101730.59
2023-05-08T03:36:36.227Z,101717.31
2023-05-08T03:39:07.701Z,101722.63
2023-05-08T03:41:39.250Z,101729.66
2023-05-08T03:44:11.550Z,101690.72
2023-05-08T03:46:43.049Z,101732.31
2023-05-08T03:49:14.809Z,101697.81
2023-05-08T03:51:46.980Z,101713.69
2023-05-08T03:54:18.261Z,101740.28
2023-05-08T03:56:49.550Z,101734.06
2023-05-08T03:59:44.226Z,101736.81
2023-05-08T04:02:42.450Z,101730.69
2023-05-08T04:05:23.277Z,101733.34
2023-05-08T04:08:15.078Z,101734.28
2023-05-08T04:10:50.696Z,101729.03
2023-05-08T04:13:32.148Z,101711.38
2023-05-08T04:16:13.350Z,101718.56
2023-05-08T04:18:47.811Z,101714.22
2023-05-08T04:21:22.693Z,101716.03
2023-05-08T04:23:57.594Z,101724.03
2023-05-08T04:26:29.347Z,101717.91
2023-05-08T04:29:01.119Z,101717.97
2023-05-08T04:31:35.048Z,101696.78
2023-05-08T04:34:08.712Z,101703.94
2023-05-08T04:36:40.271Z,101713.72
2023-05-08T04:39:11.706Z,101694.28
2023-05-08T04:41:43.014Z,101715.56
2023-05-08T04:44:14.570Z,101697.00
2023-05-08T04:46:45.975Z,101711.25
2023-05-08T04:49:17.256Z,101696.22
2023-05-08T04:51:48.556Z,101711.28
2023-05-08T04:54:19.841Z,101710.41
2023-05-08T04:56:51.266Z,101710.47
2023-05-08T04:59:22.623Z,101709.63
2023-05-08T05:01:53.957Z,101718.47
2023-05-08T05:04:25.347Z,101714.09
2023-05-08T05:06:56.910Z,101722.94
2023-05-08T05:09:28.459Z,101722.94
2023-05-08T05:11:59.791Z,101723.84
2023-05-08T05:14:31.518Z,101727.41
2023-05-08T05:17:02.875Z,101721.28
2023-05-08T05:19:34.330Z,101727.50
2023-05-08T05:22:06.388Z,101731.94
2023-05-08T05:24:39.466Z,101735.50
2023-05-08T05:27:10.742Z,101724.94
2023-05-08T05:29:42.131Z,101733.78
2023-05-08T05:32:13.405Z,101739.09
2023-05-08T05:34:44.686Z,101741.78
2023-05-08T05:41:08.859Z,101719.72
2023-05-08T05:43:40.110Z,101730.34
2023-05-08T05:46:12.443Z,101704.72
2023-05-08T05:48:43.714Z,101731.28
2023-05-08T05:51:14.974Z,101736.59
2023-05-08T05:53:46.269Z,101740.13
2023-05-08T05:56:17.512Z,101741.03
2023-05-08T05:58:48.944Z,101741.06
2023-05-08T06:01:20.369Z,101748.13
2023-05-08T06:03:51.691Z,101751.63
2023-05-08T06:06:23.171Z,101749.84
2023-05-08T06:08:54.423Z,101725.31
2023-05-08T06:11:25.755Z,101747.00
2023-05-08T06:13:57.119Z,101746.19
2023-05-08T06:16:30.322Z,101749.47
2023-05-08T06:19:01.650Z,101746.56
2023-05-08T06:21:34.401Z,101742.94
2023-05-08T06:24:06.813Z,101737.22
2023-05-08T06:26:38.108Z,101745.44
2023-05-08T06:29:09.400Z,101749.97
2023-05-08T06:31:40.676Z,101739.06
2023-05-08T06:34:12.047Z,101744.31
2023-05-08T06:36:43.335Z,101736.31
2023-05-08T06:39:14.660Z,101743.91
2023-05-08T06:41:49.170Z,101739.19
2023-05-08T06:44:20.452Z,101746.47
2023-05-08T06:46:51.840Z,101749.16
2023-05-08T06:49:23.248Z,101750.22
2023-05-08T06:51:56.450Z,101753.75
2023-05-08T06:54:29.083Z,101758.34
2023-05-08T06:57:00.387Z,101743.50
2023-05-08T06:59:31.657Z,101742.75
2023-05-08T07:02:03.034Z,101732.00
2023-05-08T07:04:34.522Z,101741.53
2023-05-08T07:07:06.765Z,101736.91
2023-05-08T07:09:38.055Z,101732.16
2023-05-08T07:12:09.555Z,101748.91
2023-05-08T07:14:40.832Z,101728.72
2023-05-08T07:17:12.116Z,101744.53
2023-05-08T07:19:43.428Z,101726.69
2023-05-08T07:22:14.850Z,101718.56
2023-05-08T07:24:46.440Z,101736.00
2023-05-08T07:27:17.824Z,101744.06
2023-05-08T07:29:49.080Z,101744.94
2023-05-08T07:32:20.522Z,101744.78
2023-05-08T07:34:51.832Z,101745.38
2023-05-08T07:37:23.211Z,101738.63
2023-05-08T07:39:54.563Z,101738.97
2023-05-08T07:42:26.135Z,101729.94
2023-05-08T07:44:57.451Z,101733.91
2023-05-08T07:47:29.366Z,101739.84
2023-05-08T07:50:01.319Z,101740.47
2023-05-08T07:52:32.574Z,101738.50
2023-05-08T07:55:04.237Z,101739.28
2023-05-08T07:57:42.767Z,101729.13
2023-05-08T08:00:15.506Z,101735.00
2023-05-08T08:02:47.159Z,101735.28
2023-05-08T08:05:19.169Z,101731.22
2023-05-08T08:07:50.528Z,101722.09
2023-05-08T08:10:21.824Z,101719.16
2023-05-08T08:12:53.373Z,101697.06
2023-05-08T08:15:24.703Z,101704.53
2023-05-08T08:17:56.072Z,101719.94
2023-05-08T08:20:27.522Z,101714.06
2023-05-08T08:22:58.904Z,101723.19
2023-05-08T08:25:30.405Z,101708.94
2023-05-08T08:28:01.679Z,101705.94
2023-05-08T08:30:33.006Z,101712.97
2023-05-08T08:33:06.023Z,101707.13
2023-05-08T08:35:38.083Z,101713.78
2023-05-08T08:38:09.458Z,101711.81
2023-05-08T08:40:41.567Z,101698.91
2023-05-08T08:43:13.143Z,101706.84
2023-05-08T08:45:44.464Z,101701.31
2023-05-08T08:48:16.312Z,101694.75
2023-05-08T08:50:52.906Z,101690.44
2023-05-08T08:53:34.398Z,101696.56
2023-05-08T08:56:08.629Z,101699.16
2023-05-08T08:58:47.685Z,101691.81
2023-05-08T09:01:20.448Z,101695.22
2023-05-08T09:03:51.918Z,101709.09
2023-05-08T09:06:23.519Z,101693.63
2023-05-08T09:08:58.361Z,101698.06
2023-05-08T09:11:29.995Z,101718.03
2023-05-08T09:14:01.553Z,101717.31
2023-05-08T09:16:33.151Z,101728.50
2023-05-08T09:19:04.807Z,101691.75
2023-05-08T09:21:36.488Z,101714.41
2023-05-08T09:24:07.795Z,101716.16
2023-05-08T09:26:41.391Z,101696.75
2023-05-08T09:29:16.577Z,101719.66
2023-05-08T09:31:50.115Z,101706.38
2023-05-08T09:34:27.782Z,101705.06
2023-05-08T09:37:05.192Z,101701.88
2023-05-08T09:39:36.580Z,101697.34
2023-05-08T09:42:07.892Z,101704.59
2023-05-08T09:44:52.976Z,101701.44
2023-05-08T09:47:25.127Z,101708.50
2023-05-08T09:50:06.918Z,101697.94
2023-05-08T09:52:39.248Z,101680.59
2023-05-08T09:55:11.005Z,101701.34
2023-05-08T09:57:59.791Z,101705.47
2023-05-08T10:00:39.356Z,101701.69
2023-05-08T10:03:10.892Z,101698.47
2023-05-08T10:05:42.261Z,101697.72
2023-05-08T10:08:20.904Z,101695.03
2023-05-08T10:10:53.172Z,101699.00
2023-05-08T10:13:26.099Z,101687.91
2023-05-08T10:15:57.956Z,101689.75
2023-05-08T10:18:35.138Z,101686.81
2023-05-08T10:21:08.693Z,101692.75
2023-05-08T10:23:42.278Z,101694.09
2023-05-08T10:26:16.296Z,101693.88
2023-05-08T10:28:59.719Z,101696.13
2023-05-08T10:31:34.713Z,101662.72
2023-05-08T10:34:06.226Z,101688.41
2023-05-08T10:36:37.662Z,101671.03
2023-05-08T10:39:09.866Z,101675.25
2023-05-08T10:41:41.633Z,101679.25
2023-05-08T10:44:13.216Z,101662.03
2023-05-08T10:47:16.164Z,101666.41
2023-05-08T10:50:25.913Z,101668.03
2023-05-08T10:53:00.571Z,101664.88
2023-05-08T10:55:37.187Z,101668.88
2023-05-08T10:58:15.119Z,101640.34
2023-05-08T11:00:49.493Z,101659.19
2023-05-08T11:03:31.341Z,101638.31
2023-05-08T11:06:03.899Z,101664.31
2023-05-08T11:08:46.951Z,101640.81
2023-05-08T11:11:28.139Z,101657.34
2023-05-08T11:14:08.579Z,101671.16
2023-05-08T11:16:55.364Z,101651.94
2023-05-08T11:19:28.253Z,101655.00
2023-05-08T11:22:16.048Z,101651.59
2023-05-08T11:25:08.958Z,101653.56
2023-05-08T11:31:52.045Z,101652.38
2023-05-08T11:38:18.435Z,101632.16
2023-05-08T11:40:56.324Z,101642.41
2023-05-08T11:43:33.647Z,101646.84
2023-05-08T11:46:13.908Z,101645.22
2023-05-08T11:48:45.338Z,101631.47
2023-05-08T11:51:19.075Z,101627.41
2023-05-08T11:53:51.417Z,101637.41
2023-05-08T11:56:23.037Z,101635.28
2023-05-08T11:59:05.129Z,101630.31
2023-05-08T12:01:36.960Z,101641.78
2023-05-08T12:04:12.906Z,101640.28
2023-05-08T12:06:44.800Z,101643.06
2023-05-08T12:09:18.037Z,101645.44
2023-05-08T12:11:56.944Z,101630.44
2023-05-08T12:14:28.349Z,101646.38
2023-05-08T12:17:02.361Z,101611.25
2023-05-08T12:19:33.774Z,101639.81
2023-05-08T12:22:05.268Z,101634.78
2023-05-08T12:24:36.761Z,101639.53
2023-05-08T12:27:08.861Z,101619.75
2023-05-08T12:29:44.846Z,101622.56
2023-05-08T12:32:16.445Z,101604.41
2023-05-08T12:34:47.841Z,101612.13
2023-05-08T12:37:28.244Z,101622.75
2023-05-08T12:39:59.856Z,101607.78
2023-05-08T12:42:49.019Z,101633.59
2023-05-08T12:45:21.894Z,101629.28
2023-05-08T12:47:58.381Z,101632.72
2023-05-08T12:50:34.706Z,101609.50
2023-05-08T12:53:08.149Z,101612.19
2023-05-08T12:55:41.017Z,101618.00
2023-05-08T12:58:15.021Z,101612.84
2023-05-08T13:00:49.851Z,101623.16
2023-05-08T13:03:26.383Z,101615.56
2023-05-08T13:05:58.668Z,101611.38
2023-05-08T13:08:37.744Z,101607.59
2023-05-08T13:11:09.246Z,101620.88
2023-05-08T13:13:40.696Z,101580.84
2023-05-08T13:16:12.049Z,101602.91
2023-05-08T13:18:43.418Z,101602.19
2023-05-08T13:21:14.682Z,101591.81
2023-05-08T13:23:46.015Z,101596.91
2023-05-08T13:26:17.314Z,101592.13
2023-05-08T13:28:48.565Z,101592.66
2023-05-08T13:31:20.113Z,101562.06
2023-05-08T13:33:51.449Z,101581.13
2023-05-08T13:36:24.335Z,101582.22
2023-05-08T13:38:57.148Z,101574.22
2023-05-08T13:41:28.469Z,101576.13
2023-05-08T13:43:59.800Z,101583.91
2023-05-08T13:46:31.186Z,101566.00
2023-05-08T13:49:02.627Z,101567.41
2023-05-08T13:51:33.904Z,101581.31
2023-05-08T13:54:05.360Z,101563.41
2023-05-08T13:56:36.760Z,101535.81
2023-05-08T13:59:08.311Z,101561.31
2023-05-08T14:01:39.738Z,101536.59
2023-05-08T14:04:11.309Z,101544.19
2023-05-08T14:06:42.842Z,101560.97
2023-05-08T14:09:14.186Z,101551.44
2023-05-08T14:11:45.588Z,101555.72
2023-05-08T14:14:16.942Z,101542.50
2023-05-08T14:16:48.416Z,101542.63
2023-05-08T14:19:19.693Z,101544.72
2023-05-08T14:21:51.481Z,101540.19
2023-05-08T14:24:22.798Z,101540.25
2023-05-08T14:26:54.836Z,101527.94
2023-05-08T14:29:26.217Z,101509.78
2023-05-08T14:31:57.734Z,101532.59
2023-05-08T14:34:29.279Z,101541.41
2023-05-08T14:37:00.611Z,101514.94
2023-05-08T14:39:31.963Z,101526.63
2023-05-08T14:44:37.868Z,101513.97
2023-05-08T14:47:09.409Z,101496.50
2023-05-08T14:49:40.716Z,101515.28
2023-05-08T14:52:12.135Z,101512.91
2023-05-08T14:54:43.642Z,101507.41
2023-05-08T14:57:15.082Z,101502.63
2023-05-08T14:59:55.142Z,101501.66
2023-05-08T15:02:26.897Z,101494.75
2023-05-08T15:04:58.295Z,101497.28
2023-05-08T15:07:29.580Z,101489.16
2023-05-08T15:10:01.095Z,101484.38
2023-05-08T15:12:32.656Z,101460.00
2023-05-08T15:15:04.683Z,101481.03
2023-05-08T15:17:36.567Z,101486.56
2023-05-08T15:20:11.304Z,101476.59
2023-05-08T15:22:42.704Z,101483.94
2023-05-08T15:25:14.414Z,101474.53
2023-05-08T15:27:52.372Z,101486.31
2023-05-08T15:30:25.153Z,101451.97
2023-05-08T15:32:56.531Z,101469.59
2023-05-08T15:35:27.920Z,101469.94
2023-05-08T15:38:04.419Z,101470.19
2023-05-08T15:40:35.724Z,101469.06
2023-05-08T15:43:07.286Z,101457.38
2023-05-08T15:45:38.733Z,101460.16
2023-05-08T15:48:10.151Z,101464.00
2023-05-08T15:50:41.576Z,101474.19
2023-05-08T15:53:13.092Z,101467.72
2023-05-08T15:55:44.376Z,101452.34
2023-05-08T15:58:15.881Z,101464.44
2023-05-08T16:00:47.158Z,101452.22
2023-05-08T16:03:18.783Z,101425.25
2023-05-08T16:05:50.552Z,101459.19
2023-05-08T16:08:21.978Z,101469.38
2023-05-08T16:10:54.607Z,101451.72
2023-05-08T16:13:26.005Z,101466.03
2023-05-08T16:16:07.491Z,101452.59
2023-05-08T16:18:39.833Z,101461.16
2023-05-08T16:21:11.827Z,101453.28
2023-05-08T16:23:43.188Z,101460.75
2023-05-08T16:26:16.421Z,101455.81
2023-05-08T16:28:47.916Z,101455.28
2023-05-08T16:31:19.525Z,101463.59
2023-05-08T16:33:50.913Z,101445.88
2023-05-08T16:36:22.244Z,101442.94
2023-05-08T16:38:53.929Z,101457.53
2023-05-08T16:41:26.707Z,101441.78
2023-05-08T16:43:58.108Z,101438.34
2023-05-08T16:46:30.686Z,101438.00
2023-05-08T16:49:02.245Z,101442.53
2023-05-08T16:51:33.629Z,101422.44
2023-05-08T16:54:05.073Z,101443.84
2023-05-08T16:56:36.406Z,101435.13
2023-05-08T16:59:07.857Z,101440.81
2023-05-08T17:01:39.245Z,101420.72
2023-05-08T17:04:11.804Z,101435.09
2023-05-08T17:06:43.246Z,101436.19
2023-05-08T17:09:14.655Z,101439.19
2023-05-08T17:11:45.989Z,101427.72
2023-05-08T17:14:18.523Z,101424.53
2023-05-08T17:16:49.979Z,101423.31
2023-05-08T17:19:21.299Z,101424.97
2023-05-08T17:21:52.665Z,101437.63
2023-05-08T17:24:24.010Z,101431.47
2023-05-08T17:26:55.597Z,101431.75
2023-05-08T17:29:26.912Z,101434.69
2023-05-08T17:31:59.313Z,101414.69
2023-05-08T17:34:39.005Z,101431.59
2023-05-08T17:37:10.352Z,101439.16
2023-05-08T17:39:41.837Z,101434.91
2023-05-08T17:42:13.202Z,101446.84
2023-05-08T17:44:44.547Z,101440.25
2023-05-08T17:47:15.904Z,101451.91
2023-05-08T17:49:47.189Z,101447.81
2023-05-08T17:52:18.638Z,101449.09
2023-05-08T17:54:52.849Z,101442.22
2023-05-08T17:57:24.217Z,101456.88
2023-05-08T17:59:55.788Z,101458.94
2023-05-08T18:02:27.337Z,101454.88
2023-05-08T18:04:58.682Z,101465.09
2023-05-08T18:07:30.025Z,101450.19
2023-05-08T18:10:01.420Z,101464.03
2023-05-08T18:12:32.789Z,101444.94
2023-05-08T18:15:07.943Z,101452.25
2023-05-08T18:17:39.365Z,101430.88
2023-05-08T18:20:11.341Z,101463.09
2023-05-08T18:22:43.922Z,101463.47
2023-05-08T18:25:15.536Z,101464.88
2023-05-08T18:27:48.570Z,101467.13
2023-05-08T18:30:19.988Z,101469.28
2023-05-08T18:32:53.126Z,101469.69
2023-05-08T18:35:24.459Z,101471.00
2023-05-08T18:37:55.738Z,101471.38
2023-05-08T18:40:27.149Z,101466.41
2023-05-08T18:42:58.738Z,101463.22
2023-05-08T18:45:30.209Z,101476.94
2023-05-08T18:48:01.568Z,101475.50
2023-05-08T18:50:32.918Z,101460.91
2023-05-08T18:53:04.282Z,101469.97
2023-05-08T18:55:36.140Z,101469.44
2023-05-08T18:58:07.496Z,101471.66
2023-05-08T19:00:38.862Z,101469.34
2023-05-08T19:03:10.422Z,101479.38
2023-05-08T19:05:42.015Z,101472.50
2023-05-08T19:08:15.468Z,101475.47
2023-05-08T19:10:46.825Z,101474.88
2023-05-08T19:13:18.375Z,101462.06
2023-05-08T19:15:49.939Z,101477.06
2023-05-08T19:18:21.717Z,101482.66
2023-05-08T19:20:53.338Z,101480.25
2023-05-08T19:23:24.626Z,101484.00
2023-05-08T19:25:55.996Z,101486.03
2023-05-08T19:28:29.536Z,101480.88
2023-05-08T19:31:01.067Z,101461.69
2023-05-08T19:33:32.432Z,101475.91
2023-05-08T19:36:03.718Z,101474.25
2023-05-08T19:38:37.022Z,101450.63
2023-05-08T19:41:08.321Z,101483.34
2023-05-08T19:43:39.659Z,101484.31
2023-05-08T19:46:11.001Z,101461.50
2023-05-08T19:48:42.507Z,101467.78
2023-05-08T19:51:16.130Z,101474.84
2023-05-08T19:53:47.537Z,101487.50
2023-05-08T19:56:18.880Z,101481.38
2023-05-08T19:58:50.158Z,101484.22
2023-05-08T20:01:21.469Z,101478.06
2023-05-08T20:03:53.013Z,101475.44
2023-05-08T20:06:24.337Z,101474.59
2023-05-08T20:08:55.735Z,101475.56
2023-05-08T20:11:27.117Z,101482.75
2023-05-08T20:13:58.612Z,101472.13
2023-05-08T20:16:30.014Z,101434.41
2023-05-08T20:19:01.711Z,101472.22
2023-05-08T20:21:33.928Z,101467.81
2023-05-08T20:24:05.776Z,101474.19
2023-05-08T20:26:37.058Z,101470.75
2023-05-08T20:29:09.499Z,101473.50
2023-05-08T20:31:40.922Z,101460.28
2023-05-08T20:34:12.604Z,101471.03
2023-05-08T20:36:45.108Z,101459.69
2023-05-08T20:39:16.546Z,101460.72
2023-05-08T20:41:47.812Z,101458.06
2023-05-08T20:44:19.233Z,101464.44
2023-05-08T20:46:51.400Z,101460.09
2023-05-08T20:49:22.765Z,101429.38
2023-05-08T20:51:54.134Z,101463.13
2023-05-08T20:54:25.428Z,101443.00
2023-05-08T20:56:56.844Z,101447.50
2023-05-08T20:59:28.117Z,101437.03
2023-05-08T21:01:59.382Z,101433.75
2023-05-08T21:04:31.081Z,101434.84
2023-05-08T21:07:02.453Z,101447.25
2023-05-08T21:09:33.919Z,101439.41
2023-05-08T21:12:05.336Z,101449.19
2023-05-08T21:14:37.221Z,101450.16
2023-05-08T21:17:08.516Z,101446.75
2023-05-08T21:19:39.953Z,101447.69
2023-05-08T21:22:13.651Z,101451.28
2023-05-08T21:24:44.941Z,101422.25
2023-05-08T21:27:16.262Z,101449.69
2023-05-08T21:29:47.618Z,101452.44
2023-05-08T21:32:19.020Z,101446.28
2023-05-08T21:34:50.295Z,101442.84
2023-05-08T21:37:21.688Z,101421.78
2023-05-08T21:39:54.155Z,101438.56
2023-05-08T21:42:25.602Z,101435.09
2023-05-08T21:44:57.673Z,101429.81
2023-05-08T21:47:29.005Z,101431.66
2023-05-08T21:50:00.371Z,101443.22
2023-05-08T21:52:31.676Z,101421.91
2023-05-08T21:55:08.274Z,101422.81
2023-05-08T21:57:39.595Z,101419.25
2023-05-08T22:00:11.399Z,101408.59
2023-05-08T22:02:42.808Z,101411.22
2023-05-08T22:05:14.549Z,101418.28
2023-05-08T22:07:46.489Z,101412.03
2023-05-08T22:10:17.883Z,101408.50
2023-05-08T22:12:49.208Z,101389.97
2023-05-08T22:15:29.594Z,101410.19
2023-05-08T22:18:02.791Z,101406.59
2023-05-08T22:20:34.505Z,101395.88
2023-05-08T22:23:06.330Z,101392.31
2023-05-08T22:25:37.777Z,101387.91
2023-05-08T22:28:09.105Z,101386.13
2023-05-08T22:30:40.573Z,101389.72
2023-05-08T22:33:12.083Z,101368.50
2023-05-08T22:35:43.386Z,101383.41
2023-05-08T22:38:14.649Z,101362.06
2023-05-08T22:40:47.618Z,101372.88
2023-05-08T22:43:19.029Z,101350.81
2023-05-08T22:45:50.417Z,101364.06
2023-05-08T22:48:21.806Z,101378.06
2023-05-08T22:50:53.125Z,101349.03
2023-05-08T22:53:24.502Z,101363.91
2023-05-08T22:55:55.880Z,101356.91
2023-05-08T22:58:29.062Z,101371.81
2023-05-08T23:01:00.491Z,101369.16
2023-05-08T23:03:31.791Z,101355.16
2023-05-08T23:06:03.149Z,101358.72
2023-05-08T23:08:34.432Z,101349.09
2023-05-08T23:11:05.747Z,101355.38
2023-05-08T23:13:37.050Z,101361.50
2023-05-08T23:16:08.448Z,101366.06
2023-05-08T23:18:39.744Z,101337.97
2023-05-08T23:21:11.146Z,101358.19
2023-05-08T23:23:42.453Z,101351.13
2023-05-08T23:26:14.048Z,101343.25
2023-05-08T23:28:45.424Z,101334.41
2023-05-08T23:31:16.787Z,101351.16
2023-05-08T23:33:48.251Z,101344.16
2023-05-08T23:36:19.596Z,101361.00
2023-05-08T23:38:50.861Z,101350.41
2023-05-08T23:41:22.131Z,101341.75
2023-05-08T23:43:53.397Z,101355.84
2023-05-08T23:46:24.664Z,101346.16
2023-05-08T23:48:55.979Z,101349.75
2023-05-08T23:51:27.264Z,101336.59
2023-05-08T23:53:58.576Z,101355.13
2023-05-08T23:56:30.698Z,101336.63
2023-05-08T23:59:02.121Z,101341.03
